Time;durP1;ratioP1;P1;durP2;ratioP2;P2;SDS_P1;SDS_P2;PMS_P1;PMS_P2;Temp;Humidity;BMP_temperature;BMP_pressure;BME280_temperature;BME280_humidity;BME280_pressure;Samples;Min_cycle;Max_cycle;Signal;HPM_P1;HPM_P2
2021/05/31 00:00:22;;;;;;;4.13;2.53;;;;;;;;;;5072538;28;20463;-67
2021/05/31 00:02:48;;;;;;;4.60;3.17;;;;;;;;;;5073367;28;20445;-67
2021/05/31 00:05:15;;;;;;;3.63;2.80;;;;;;;;;;5041025;28;20418;-67
2021/05/31 00:07:41;;;;;;;4.10;3.43;;;;;;;;;;5053248;28;20406;-67
2021/05/31 00:10:08;;;;;;;4.23;2.83;;;;;;;;;;5053221;28;20465;-67
2021/05/31 00:12:34;;;;;;;3.87;2.57;;;;;;;;;;5053720;28;20405;-66
2021/05/31 00:15:01;;;;;;;9.17;3.17;;;;;;;;;;5063665;28;20425;-66
2021/05/31 00:17:27;;;;;;;4.67;2.70;;;;;;;;;;5072869;28;20448;-67
2021/05/31 00:19:54;;;;;;;4.47;2.70;;;;;;;;;;5071997;28;20451;-65
2021/05/31 00:22:21;;;;;;;4.00;3.13;;;;;;;;;;5073116;28;20449;-67
2021/05/31 00:24:48;;;;;;;5.40;3.50;;;;;;;;;;5071532;28;20436;-67
2021/05/31 00:27:15;;;;;;;7.70;3.43;;;;;;;;;;5073106;28;20405;-67
2021/05/31 00:29:41;;;;;;;4.97;3.20;;;;;;;;;;5063793;28;20463;-67
2021/05/31 00:32:07;;;;;;;6.00;4.10;;;;;;;;;;5052676;28;20402;-67
2021/05/31 00:34:33;;;;;;;5.07;3.10;;;;;;;;;;5059492;28;20800;-67
2021/05/31 00:36:59;;;;;;;6.60;4.50;;;;;;;;;;5072647;28;20401;-67
2021/05/31 00:39:25;;;;;;;7.70;3.40;;;;;;;;;;5071385;28;20456;-67
2021/05/31 00:41:53;;;;;;;5.00;3.23;;;;;;;;;;5072740;28;20933;-67
2021/05/31 00:44:20;;;;;;;4.90;3.30;;;;;;;;;;5069119;28;20417;-67
2021/05/31 00:46:46;;;;;;;6.83;3.47;;;;;;;;;;5076616;28;20420;-67
2021/05/31 00:49:13;;;;;;;5.07;3.70;;;;;;;;;;5072475;28;20933;-67
2021/05/31 00:51:39;;;;;;;5.63;3.53;;;;;;;;;;5056785;28;20413;-67
2021/05/31 00:54:05;;;;;;;7.27;4.00;;;;;;;;;;5058373;28;20433;-67
2021/05/31 00:56:32;;;;;;;5.63;3.70;;;;;;;;;;5076374;28;20492;-67
2021/05/31 00:58:58;;;;;;;6.90;3.43;;;;;;;;;;5075542;28;20477;-67
2021/05/31 01:01:24;;;;;;;6.07;3.73;;;;;;;;;;5076549;28;20531;-67
2021/05/31 01:03:50;;;;;;;5.33;3.57;;;;;;;;;;5075873;28;20400;-69
2021/05/31 01:06:19;;;;;;;5.53;3.40;;;;;;;;;;5076298;28;20511;-67
2021/05/31 01:09:05;;;;;;;6.70;4.20;;;;;;;;;;5076102;28;20913;-67
2021/05/31 01:11:57;;;;;;;8.27;3.50;;;;;;;;;;5074511;28;20420;-67
2021/05/31 01:14:25;;;;;;;6.13;4.17;;;;;;;;;;5058218;28;20412;-67
2021/05/31 01:17:07;;;;;;;4.80;3.17;;;;;;;;;;5073974;28;20482;-68
2021/05/31 01:19:45;;;;;;;5.70;3.60;;;;;;;;;;5075927;28;20416;-67
2021/05/31 01:22:12;;;;;;;5.27;3.93;;;;;;;;;;5074035;28;20452;-67
2021/05/31 01:24:38;;;;;;;6.73;3.53;;;;;;;;;;5075893;28;20393;-67
2021/05/31 01:27:20;;;;;;;5.63;3.87;;;;;;;;;;5075086;28;20947;-67
2021/05/31 01:29:51;;;;;;;7.47;4.07;;;;;;;;;;5075706;28;20432;-67
2021/05/31 01:32:17;;;;;;;7.27;3.77;;;;;;;;;;5074901;28;20472;-67
2021/05/31 01:34:43;;;;;;;8.60;5.00;;;;;;;;;;5076019;28;20428;-67
2021/05/31 01:37:12;;;;;;;5.43;3.50;;;;;;;;;;5072574;28;20983;-67
2021/05/31 01:39:40;;;;;;;5.60;3.77;;;;;;;;;;5057607;28;20467;-67
2021/05/31 01:42:08;;;;;;;9.77;3.87;;;;;;;;;;5073438;28;20987;-67
2021/05/31 01:44:34;;;;;;;7.57;4.30;;;;;;;;;;5057700;28;20496;-67
2021/05/31 01:47:00;;;;;;;5.90;3.90;;;;;;;;;;5073288;28;20436;-67
2021/05/31 01:49:27;;;;;;;7.77;4.53;;;;;;;;;;5075792;28;20464;-67
2021/05/31 01:51:53;;;;;;;8.10;4.47;;;;;;;;;;5066398;28;20883;-67
2021/05/31 01:54:20;;;;;;;6.00;4.10;;;;;;;;;;5055245;28;20547;-67
2021/05/31 01:56:47;;;;;;;6.50;4.40;;;;;;;;;;5055818;28;20483;-67
2021/05/31 01:59:13;;;;;;;7.13;5.20;;;;;;;;;;5055615;28;20508;-67
2021/05/31 02:01:40;;;;;;;5.60;4.17;;;;;;;;;;5069253;28;20483;-67
2021/05/31 02:04:06;;;;;;;6.53;4.43;;;;;;;;;;5075216;28;20408;-67
2021/05/31 02:06:32;;;;;;;7.80;4.57;;;;;;;;;;5074009;28;20475;-67
2021/05/31 02:08:58;;;;;;;7.70;4.00;;;;;;;;;;5075261;28;20953;-67
2021/05/31 02:11:49;;;;;;;7.43;4.90;;;;;;;;;;5074233;28;20464;-67
2021/05/31 02:14:17;;;;;;;9.37;4.17;;;;;;;;;;5075442;28;20425;-67
2021/05/31 02:17:04;;;;;;;5.80;3.93;;;;;;;;;;5074242;28;20515;-67
2021/05/31 02:19:31;;;;;;;7.20;3.60;;;;;;;;;;5074033;28;20532;-67
2021/05/31 02:21:58;;;;;;;17.73;4.77;;;;;;;;;;5073705;28;20452;-67
2021/05/31 02:24:24;;;;;;;5.00;3.97;;;;;;;;;;5075212;28;20405;-67
2021/05/31 02:26:51;;;;;;;6.17;4.27;;;;;;;;;;5067923;28;20414;-67
2021/05/31 02:29:18;;;;;;;7.33;4.43;;;;;;;;;;5055073;28;20512;-67
2021/05/31 02:31:44;;;;;;;7.57;5.20;;;;;;;;;;5059730;28;20425;-67
2021/05/31 02:34:10;;;;;;;6.90;4.70;;;;;;;;;;5074654;28;20454;-67
2021/05/31 02:36:36;;;;;;;6.57;4.33;;;;;;;;;;5073651;28;20425;-67
2021/05/31 02:39:02;;;;;;;8.53;4.53;;;;;;;;;;5074612;28;20428;-67
2021/05/31 02:41:28;;;;;;;5.33;4.00;;;;;;;;;;5073477;28;20961;-67
2021/05/31 02:43:54;;;;;;;6.23;3.93;;;;;;;;;;5074617;28;20401;-67
2021/05/31 02:46:20;;;;;;;9.57;4.00;;;;;;;;;;5071950;28;20413;-69
2021/05/31 02:48:46;;;;;;;6.07;3.50;;;;;;;;;;5056046;28;20503;-67
2021/05/31 02:51:13;;;;;;;7.40;4.10;;;;;;;;;;5053848;28;20408;-67
2021/05/31 02:53:39;;;;;;;7.37;3.90;;;;;;;;;;5054288;28;20410;-67
2021/05/31 02:56:07;;;;;;;6.30;4.60;;;;;;;;;;5054430;28;20404;-67
2021/05/31 02:58:33;;;;;;;4.50;3.33;;;;;;;;;;5068615;28;20452;-69
2021/05/31 03:00:59;;;;;;;8.60;4.13;;;;;;;;;;5073982;28;20491;-67
2021/05/31 03:03:25;;;;;;;4.93;3.70;;;;;;;;;;5073240;28;20490;-67
2021/05/31 03:05:51;;;;;;;6.87;3.80;;;;;;;;;;5073640;28;20408;-67
2021/05/31 03:08:17;;;;;;;7.17;4.50;;;;;;;;;;5072812;28;20503;-67
2021/05/31 03:10:43;;;;;;;7.10;4.50;;;;;;;;;;5073994;28;20396;-67
2021/05/31 03:13:09;;;;;;;6.03;3.53;;;;;;;;;;5072581;28;20421;-67
2021/05/31 03:15:35;;;;;;;6.33;3.77;;;;;;;;;;5074095;28;20397;-67
2021/05/31 03:18:01;;;;;;;11.33;5.10;;;;;;;;;;5072608;28;20780;-67
2021/05/31 03:20:29;;;;;;;6.50;4.40;;;;;;;;;;5073735;28;20403;-67
2021/05/31 03:22:55;;;;;;;10.10;5.30;;;;;;;;;;5072966;28;20956;-67
2021/05/31 03:25:22;;;;;;;7.27;4.40;;;;;;;;;;5074042;28;20440;-67
2021/05/31 03:27:48;;;;;;;11.00;5.30;;;;;;;;;;5072525;28;20435;-69
2021/05/31 03:30:16;;;;;;;5.40;3.93;;;;;;;;;;5072587;28;20433;-67
2021/05/31 03:32:42;;;;;;;7.50;4.00;;;;;;;;;;5072641;28;20444;-67
2021/05/31 03:35:09;;;;;;;6.10;3.80;;;;;;;;;;5073565;28;20896;-67
2021/05/31 03:37:35;;;;;;;6.00;4.47;;;;;;;;;;5072266;28;20428;-67
2021/05/31 03:40:01;;;;;;;7.17;4.27;;;;;;;;;;5073553;28;20424;-67
2021/05/31 03:42:27;;;;;;;5.30;3.80;;;;;;;;;;5072197;28;20457;-67
2021/05/31 03:44:53;;;;;;;11.63;3.77;;;;;;;;;;5053612;28;20827;-67
2021/05/31 03:47:19;;;;;;;8.20;4.80;;;;;;;;;;5054627;28;20870;-68
2021/05/31 03:49:45;;;;;;;5.50;4.17;;;;;;;;;;5073608;28;20436;-67
2021/05/31 03:52:11;;;;;;;7.67;4.37;;;;;;;;;;5071558;28;20881;-67
2021/05/31 03:54:37;;;;;;;6.30;4.03;;;;;;;;;;5053221;28;20398;-67
2021/05/31 03:57:04;;;;;;;6.77;5.10;;;;;;;;;;5052910;28;20475;-68
2021/05/31 03:59:30;;;;;;;9.00;4.70;;;;;;;;;;5053710;28;20580;-67
2021/05/31 04:01:56;;;;;;;10.60;5.23;;;;;;;;;;5053171;28;20452;-67
2021/05/31 04:04:23;;;;;;;9.10;5.27;;;;;;;;;;5071247;28;20420;-67
2021/05/31 04:12:00;;;;;;;15.00;5.80;;;;;;;;;;5053451;28;20456;-67
2021/05/31 04:14:27;;;;;;;7.40;4.77;;;;;;;;;;5071635;28;20432;-67
2021/05/31 04:16:55;;;;;;;9.13;5.20;;;;;;;;;;5073256;28;20783;-67
2021/05/31 04:19:22;;;;;;;6.00;4.07;;;;;;;;;;5072131;28;20803;-67
2021/05/31 04:21:50;;;;;;;8.50;4.87;;;;;;;;;;5073214;28;20449;-67
2021/05/31 04:24:16;;;;;;;7.97;4.80;;;;;;;;;;5071960;28;20436;-67
2021/05/31 04:26:43;;;;;;;16.00;5.20;;;;;;;;;;5073269;28;20857;-67
2021/05/31 04:29:10;;;;;;;19.37;4.30;;;;;;;;;;5071125;28;20464;-67
2021/05/31 04:31:37;;;;;;;7.70;5.00;;;;;;;;;;5055201;28;20440;-67
2021/05/31 04:34:04;;;;;;;8.37;5.17;;;;;;;;;;5072191;28;20432;-67
2021/05/31 04:36:30;;;;;;;12.33;6.10;;;;;;;;;;5070856;28;20474;-68
2021/05/31 04:38:56;;;;;;;7.50;5.30;;;;;;;;;;5072796;28;20943;-67
2021/05/31 04:41:23;;;;;;;6.27;4.37;;;;;;;;;;5068386;28;20552;-67
2021/05/31 04:43:49;;;;;;;6.60;4.90;;;;;;;;;;5053014;28;20780;-67
2021/05/31 04:46:15;;;;;;;7.33;5.10;;;;;;;;;;5053011;28;20486;-66
2021/05/31 04:48:41;;;;;;;8.30;4.90;;;;;;;;;;5052765;28;20475;-67
2021/05/31 04:51:07;;;;;;;9.67;5.73;;;;;;;;;;5053866;28;20402;-68
2021/05/31 04:53:33;;;;;;;7.10;4.97;;;;;;;;;;5073268;28;20776;-67
2021/05/31 04:56:02;;;;;;;7.00;5.20;;;;;;;;;;5072480;28;20539;-68
2021/05/31 04:58:28;;;;;;;7.90;5.43;;;;;;;;;;5052822;28;20465;-67
2021/05/31 05:00:54;;;;;;;7.47;5.17;;;;;;;;;;5052914;28;20405;-68
2021/05/31 05:03:21;;;;;;;7.60;5.60;;;;;;;;;;5071736;28;20416;-67
2021/05/31 05:05:47;;;;;;;16.13;5.93;;;;;;;;;;5072677;28;20397;-67
2021/05/31 05:08:14;;;;;;;6.87;4.43;;;;;;;;;;5053963;28;20453;-67
2021/05/31 05:10:40;;;;;;;6.53;4.87;;;;;;;;;;5063639;28;20455;-67
2021/05/31 05:13:06;;;;;;;11.83;6.47;;;;;;;;;;5055062;28;20434;-67
2021/05/31 05:15:33;;;;;;;9.90;6.10;;;;;;;;;;5052761;28;20406;-66
2021/05/31 05:17:59;;;;;;;10.63;5.20;;;;;;;;;;5067937;28;20428;-67
2021/05/31 05:20:26;;;;;;;8.30;5.43;;;;;;;;;;5072717;28;20447;-67
2021/05/31 05:22:52;;;;;;;8.33;5.77;;;;;;;;;;5057404;28;20850;-67
2021/05/31 05:25:19;;;;;;;8.93;5.60;;;;;;;;;;5053462;28;20763;-66
2021/05/31 05:27:46;;;;;;;8.63;5.10;;;;;;;;;;5064232;28;20900;-67
2021/05/31 05:30:13;;;;;;;6.73;5.20;;;;;;;;;;5076192;28;20421;-67
2021/05/31 05:32:39;;;;;;;9.60;5.70;;;;;;;;;;5075545;28;20511;-67
2021/05/31 05:37:57;;;;;;;9.20;5.23;;;;;;;;;;5075206;28;20441;-67
2021/05/31 05:47:54;;;;;;;9.60;5.87;;;;;;;;;;5074734;28;20420;-67
2021/05/31 05:50:21;;;;;;;7.30;5.30;;;;;;;;;;5075916;28;20420;-67
2021/05/31 05:52:47;;;;;;;9.33;5.40;;;;;;;;;;5074597;28;20429;-67
2021/05/31 05:55:13;;;;;;;9.03;5.83;;;;;;;;;;5075694;28;20765;-67
2021/05/31 05:57:40;;;;;;;6.23;5.00;;;;;;;;;;5074803;28;20432;-67
2021/05/31 06:00:08;;;;;;;9.60;6.13;;;;;;;;;;5075544;28;20427;-67
2021/05/31 06:02:34;;;;;;;9.90;6.60;;;;;;;;;;5074564;28;20457;-67
2021/05/31 06:05:01;;;;;;;7.53;5.00;;;;;;;;;;5075701;28;20409;-67
2021/05/31 06:07:27;;;;;;;9.90;6.00;;;;;;;;;;5074458;28;20512;-67
2021/05/31 06:09:53;;;;;;;8.10;5.20;;;;;;;;;;5075563;28;20763;-67
2021/05/31 06:12:19;;;;;;;7.00;5.10;;;;;;;;;;5071698;28;20957;-67
2021/05/31 06:14:45;;;;;;;9.93;5.70;;;;;;;;;;5075478;28;20405;-66
2021/05/31 06:17:11;;;;;;;7.00;5.03;;;;;;;;;;5074376;28;20432;-67
2021/05/31 06:19:37;;;;;;;6.63;5.40;;;;;;;;;;5075791;28;20428;-67
2021/05/31 06:22:03;;;;;;;9.23;4.80;;;;;;;;;;5056512;28;21000;-67
2021/05/31 06:24:30;;;;;;;6.77;4.57;;;;;;;;;;5075318;28;20432;-68
2021/05/31 06:26:56;;;;;;;6.33;4.97;;;;;;;;;;5075627;28;20921;-67
2021/05/31 06:29:22;;;;;;;10.77;5.90;;;;;;;;;;5055212;28;20461;-66
2021/05/31 06:31:48;;;;;;;9.80;6.70;;;;;;;;;;5061061;28;20842;-65
2021/05/31 06:34:14;;;;;;;7.63;5.53;;;;;;;;;;5074069;28;20512;-67
2021/05/31 06:36:41;;;;;;;7.10;5.10;;;;;;;;;;5074949;28;20436;-67
2021/05/31 06:39:10;;;;;;;6.10;4.97;;;;;;;;;;5057383;28;20449;-65
2021/05/31 06:41:36;;;;;;;10.83;6.07;;;;;;;;;;5054038;28;20523;-67
2021/05/31 06:44:03;;;;;;;8.90;5.33;;;;;;;;;;5070222;28;20822;-67
2021/05/31 06:46:29;;;;;;;8.07;5.30;;;;;;;;;;5056791;28;20420;-67
2021/05/31 06:48:55;;;;;;;6.80;5.00;;;;;;;;;;5073514;28;21041;-67
2021/05/31 06:51:21;;;;;;;7.17;4.73;;;;;;;;;;5073702;28;20802;-66
2021/05/31 06:53:48;;;;;;;10.57;4.17;;;;;;;;;;5072243;28;20421;-66
2021/05/31 06:56:16;;;;;;;6.87;4.67;;;;;;;;;;5073975;28;20520;-65
2021/05/31 06:58:42;;;;;;;6.87;4.97;;;;;;;;;;5071107;28;20449;-65
2021/05/31 07:01:10;;;;;;;6.40;4.97;;;;;;;;;;5071933;28;20503;-65
2021/05/31 07:03:36;;;;;;;7.33;4.80;;;;;;;;;;5069524;28;20448;-66
2021/05/31 07:06:02;;;;;;;7.57;4.80;;;;;;;;;;5060302;28;20421;-65
2021/05/31 07:08:30;;;;;;;6.07;4.47;;;;;;;;;;5072482;28;20783;-66
2021/05/31 07:10:57;;;;;;;7.57;5.37;;;;;;;;;;5073554;28;20437;-66
2021/05/31 07:13:24;;;;;;;6.30;5.13;;;;;;;;;;5063744;28;20433;-66
2021/05/31 07:15:57;;;;;;;5.80;4.60;;;;;;;;;;5066249;28;20796;-67
2021/05/31 07:18:24;;;;;;;8.67;5.43;;;;;;;;;;5069581;28;20444;-69
2021/05/31 07:20:51;;;;;;;7.70;4.73;;;;;;;;;;5072538;28;20410;-65
2021/05/31 07:23:17;;;;;;;6.23;4.73;;;;;;;;;;5071610;28;20467;-65
2021/05/31 07:25:43;;;;;;;6.63;4.67;;;;;;;;;;5073817;28;20760;-65
2021/05/31 07:28:10;;;;;;;11.63;4.50;;;;;;;;;;5071909;28;20555;-65
2021/05/31 07:30:37;;;;;;;6.93;4.80;;;;;;;;;;5073227;28;20409;-65
2021/05/31 07:33:04;;;;;;;8.27;4.53;;;;;;;;;;5064431;28;20422;-65
2021/05/31 07:35:30;;;;;;;6.50;5.00;;;;;;;;;;5053153;28;20501;-65
2021/05/31 07:37:56;;;;;;;6.33;3.90;;;;;;;;;;5064667;28;20463;-65
2021/05/31 07:40:23;;;;;;;5.80;4.13;;;;;;;;;;5063235;28;20417;-67
2021/05/31 07:42:49;;;;;;;8.90;4.17;;;;;;;;;;5070970;28;20877;-67
2021/05/31 07:45:19;;;;;;;8.70;4.40;;;;;;;;;;5071326;28;20444;-65
2021/05/31 07:47:45;;;;;;;8.87;4.03;;;;;;;;;;5065589;28;20862;-65
2021/05/31 07:50:12;;;;;;;10.83;3.93;;;;;;;;;;5072271;28;20412;-67
2021/05/31 07:52:38;;;;;;;6.70;4.60;;;;;;;;;;5069106;28;20421;-65
2021/05/31 07:55:11;;;;;;;6.03;4.40;;;;;;;;;;5050412;28;20429;-65
2021/05/31 07:57:37;;;;;;;6.77;3.03;;;;;;;;;;5071686;28;20410;-66
2021/05/31 08:00:05;;;;;;;4.37;3.40;;;;;;;;;;5067808;28;20541;-67
2021/05/31 08:02:31;;;;;;;29.93;6.53;;;;;;;;;;5042453;28;21014;-65
2021/05/31 08:04:57;;;;;;;19.40;3.90;;;;;;;;;;5060267;28;20425;-67
2021/05/31 08:07:23;;;;;;;6.47;3.37;;;;;;;;;;5058400;28;20404;-69
2021/05/31 08:09:49;;;;;;;11.90;4.50;;;;;;;;;;5070196;28;20518;-67
2021/05/31 08:12:15;;;;;;;4.30;3.60;;;;;;;;;;5071312;28;20861;-66
2021/05/31 08:14:41;;;;;;;5.43;3.40;;;;;;;;;;5063994;28;20432;-68
2021/05/31 08:17:08;;;;;;;9.90;3.67;;;;;;;;;;5053413;28;20528;-66
2021/05/31 08:19:34;;;;;;;4.90;2.97;;;;;;;;;;5070502;28;20453;-67
2021/05/31 08:22:01;;;;;;;5.90;3.30;;;;;;;;;;5071372;28;20493;-62
2021/05/31 08:24:27;;;;;;;5.13;3.63;;;;;;;;;;5070997;28;20478;-64
2021/05/31 08:26:54;;;;;;;5.60;2.83;;;;;;;;;;5067125;28;20900;-65
2021/05/31 08:29:21;;;;;;;3.77;2.73;;;;;;;;;;5067639;28;20514;-65
2021/05/31 08:31:47;;;;;;;5.03;3.10;;;;;;;;;;5064868;28;21043;-67
2021/05/31 08:34:13;;;;;;;5.97;3.43;;;;;;;;;;5069302;28;20428;-64
2021/05/31 08:36:39;;;;;;;6.60;2.93;;;;;;;;;;5071164;28;20870;-64
2021/05/31 08:39:07;;;;;;;9.70;4.67;;;;;;;;;;5070557;28;20972;-66
2021/05/31 08:41:34;;;;;;;4.80;3.10;;;;;;;;;;5053779;28;20850;-64
2021/05/31 08:44:00;;;;;;;4.22;3.13;;;;;;;;;;5070353;28;20518;-63
2021/05/31 08:46:26;;;;;;;5.30;3.50;;;;;;;;;;5064512;28;20411;-65
2021/05/31 08:48:53;;;;;;;6.40;3.70;;;;;;;;;;5067440;28;20218;-66
2021/05/31 08:51:21;;;;;;;5.67;4.03;;;;;;;;;;5070661;28;20405;-67
2021/05/31 08:53:48;;;;;;;5.57;3.50;;;;;;;;;;5068381;28;20444;-67
2021/05/31 08:56:14;;;;;;;4.33;3.47;;;;;;;;;;5072304;28;20412;-66
2021/05/31 08:58:41;;;;;;;5.53;4.10;;;;;;;;;;5066269;28;20941;-67
2021/05/31 09:01:07;;;;;;;4.97;4.17;;;;;;;;;;5071107;28;20914;-66
2021/05/31 09:03:33;;;;;;;7.30;3.87;;;;;;;;;;5072252;28;20405;-68
2021/05/31 09:06:00;;;;;;;6.03;3.90;;;;;;;;;;5073947;28;20764;-66
2021/05/31 09:08:27;;;;;;;4.60;3.63;;;;;;;;;;5074267;28;20435;-65
2021/05/31 09:10:55;;;;;;;5.17;4.40;;;;;;;;;;5070413;28;20550;-68
2021/05/31 09:13:30;;;;;;;8.07;3.70;;;;;;;;;;5070375;28;20932;-67
2021/05/31 09:16:22;;;;;;;6.27;4.30;;;;;;;;;;5073184;28;20421;-65
2021/05/31 09:18:50;;;;;;;6.23;4.13;;;;;;;;;;5053353;28;20810;-65
2021/05/31 09:21:25;;;;;;;7.43;3.80;;;;;;;;;;5072944;28;20456;-65
2021/05/31 09:24:00;;;;;;;7.27;4.13;;;;;;;;;;5071380;28;21870;-66
2021/05/31 09:26:27;;;;;;;4.43;3.63;;;;;;;;;;5073017;28;20417;-65
2021/05/31 09:29:11;;;;;;;6.30;4.07;;;;;;;;;;5066651;28;20448;-64
2021/05/31 09:31:37;;;;;;;6.63;3.90;;;;;;;;;;5067372;28;20737;-67
2021/05/31 09:34:03;;;;;;;6.20;4.30;;;;;;;;;;5065207;28;20928;-65
2021/05/31 09:36:30;;;;;;;5.50;4.20;;;;;;;;;;5074521;28;20558;-66
2021/05/31 09:38:56;;;;;;;4.80;3.97;;;;;;;;;;5073383;28;20459;-65
2021/05/31 09:41:27;;;;;;;5.30;3.80;;;;;;;;;;5071869;28;20457;-65
2021/05/31 09:43:54;;;;;;;5.27;3.23;;;;;;;;;;5055346;28;20388;-66
2021/05/31 09:46:20;;;;;;;7.30;4.17;;;;;;;;;;5070974;28;20417;-67
2021/05/31 09:48:46;;;;;;;4.60;3.63;;;;;;;;;;5074756;28;20437;-65
2021/05/31 09:51:14;;;;;;;5.90;3.33;;;;;;;;;;5068958;28;20421;-64
2021/05/31 09:53:41;;;;;;;5.50;4.50;;;;;;;;;;5065359;28;20422;-62
2021/05/31 09:56:16;;;;;;;6.00;4.00;;;;;;;;;;5067883;28;20425;-62
2021/05/31 09:59:04;;;;;;;6.13;4.10;;;;;;;;;;5075284;28;20443;-62
2021/05/31 10:01:35;;;;;;;6.70;4.37;;;;;;;;;;5055112;28;20464;-64
2021/05/31 10:04:53;;;;;;;5.70;4.23;;;;;;;;;;5066816;28;20425;-60
2021/05/31 10:06:59;;;;;;;3.83;3.23;;;;;;;;;;5059453;28;20439;-65
2021/05/31 10:09:26;;;;;;;6.57;3.87;;;;;;;;;;5071267;28;20511;-61
2021/05/31 10:11:53;;;;;;;5.17;3.50;;;;;;;;;;5067255;28;20443;-65
2021/05/31 10:14:20;;;;;;;3.23;2.53;;;;;;;;;;5052740;28;20466;-63
2021/05/31 10:16:47;;;;;;;7.50;3.80;;;;;;;;;;5073253;28;20437;-62
2021/05/31 10:19:13;;;;;;;4.73;3.63;;;;;;;;;;5062535;28;20448;-66
2021/05/31 10:21:39;;;;;;;4.27;3.70;;;;;;;;;;5063736;28;20457;-67
2021/05/31 10:24:06;;;;;;;4.30;3.58;;;;;;;;;;5060283;28;20714;-64
2021/05/31 10:26:35;;;;;;;7.53;4.40;;;;;;;;;;5070801;28;20171;-64
2021/05/31 10:29:01;;;;;;;4.63;3.30;;;;;;;;;;5060929;28;20459;-62
2021/05/31 10:31:27;;;;;;;6.20;3.53;;;;;;;;;;5071087;28;20456;-63
2021/05/31 10:34:00;;;;;;;5.20;3.77;;;;;;;;;;5072328;28;20497;-65
2021/05/31 10:36:31;;;;;;;5.03;3.43;;;;;;;;;;5069340;28;20791;-64
2021/05/31 10:39:00;;;;;;;5.23;3.30;;;;;;;;;;5036815;28;20437;-66
2021/05/31 10:41:26;;;;;;;5.40;3.23;;;;;;;;;;5062449;28;20533;-64
2021/05/31 10:43:56;;;;;;;4.33;3.80;;;;;;;;;;5073308;28;20417;-64
2021/05/31 10:46:26;;;;;;;4.53;4.07;;;;;;;;;;5072611;28;20429;-62
2021/05/31 10:48:52;;;;;;;6.40;3.73;;;;;;;;;;5049311;28;20441;-65
2021/05/31 10:51:18;;;;;;;4.50;3.30;;;;;;;;;;5069964;28;20816;-64
2021/05/31 10:53:44;;;;;;;8.83;3.90;;;;;;;;;;5067840;28;20509;-61
2021/05/31 10:56:11;;;;;;;4.00;2.97;;;;;;;;;;5068840;28;20416;-59
2021/05/31 10:58:45;;;;;;;5.33;3.53;;;;;;;;;;5069079;28;20535;-61
2021/05/31 11:01:12;;;;;;;5.90;4.20;;;;;;;;;;5069619;28;20429;-68
2021/05/31 11:03:51;;;;;;;4.87;4.10;;;;;;;;;;5065579;28;20417;-66
2021/05/31 11:06:18;;;;;;;4.20;3.17;;;;;;;;;;5070415;28;20435;-65
2021/05/31 11:08:48;;;;;;;5.00;3.23;;;;;;;;;;5070953;28;20448;-65
2021/05/31 11:11:23;;;;;;;9.50;3.60;;;;;;;;;;5071837;28;20435;-65
2021/05/31 11:13:50;;;;;;;5.40;2.63;;;;;;;;;;5073496;28;20881;-65
2021/05/31 11:16:16;;;;;;;7.70;3.40;;;;;;;;;;5071078;28;20447;-67
2021/05/31 11:18:44;;;;;;;5.40;3.47;;;;;;;;;;5072425;28;20448;-66
2021/05/31 11:21:11;;;;;;;4.50;3.17;;;;;;;;;;5070414;28;20417;-65
2021/05/31 11:23:39;;;;;;;5.63;3.53;;;;;;;;;;5071477;28;20424;-65
2021/05/31 11:26:05;;;;;;;4.00;3.00;;;;;;;;;;5069362;28;20424;-66
2021/05/31 11:28:31;;;;;;;5.50;3.40;;;;;;;;;;5072922;28;20460;-65
2021/05/31 11:30:57;;;;;;;5.07;3.10;;;;;;;;;;5072306;28;20443;-66
2021/05/31 11:33:23;;;;;;;3.50;2.63;;;;;;;;;;5071812;28;20445;-65
2021/05/31 11:35:49;;;;;;;4.90;3.00;;;;;;;;;;5069557;28;20931;-65
2021/05/31 11:38:19;;;;;;;6.10;2.50;;;;;;;;;;5069942;28;20449;-67
2021/05/31 11:40:45;;;;;;;3.80;2.90;;;;;;;;;;5058269;28;20801;-66
2021/05/31 11:43:13;;;;;;;4.50;3.13;;;;;;;;;;5054943;28;20457;-66
2021/05/31 11:45:40;;;;;;;5.80;3.03;;;;;;;;;;5055286;28;20432;-65
2021/05/31 11:48:12;;;;;;;4.00;2.50;;;;;;;;;;5070436;28;20947;-66
2021/05/31 11:50:40;;;;;;;5.20;3.87;;;;;;;;;;5072542;28;20485;-66
2021/05/31 11:53:07;;;;;;;7.23;3.83;;;;;;;;;;5067522;28;20424;-66
2021/05/31 11:55:33;;;;;;;5.30;3.70;;;;;;;;;;5071245;28;20441;-66
2021/05/31 11:58:00;;;;;;;3.73;2.53;;;;;;;;;;5046692;28;20512;-65
2021/05/31 12:00:27;;;;;;;3.57;2.70;;;;;;;;;;5053136;28;20902;-66
2021/05/31 12:02:54;;;;;;;4.70;2.80;;;;;;;;;;5066804;28;20539;-66
2021/05/31 12:05:36;;;;;;;5.73;3.10;;;;;;;;;;5070560;28;20437;-66
2021/05/31 12:08:06;;;;;;;4.60;2.70;;;;;;;;;;5071438;28;20478;-65
2021/05/31 12:10:33;;;;;;;3.50;2.40;;;;;;;;;;5069245;28;20421;-66
2021/05/31 12:12:59;;;;;;;4.53;3.20;;;;;;;;;;5071028;28;20528;-65
2021/05/31 12:15:25;;;;;;;10.40;4.80;;;;;;;;;;5070721;28;20953;-65
2021/05/31 12:17:52;;;;;;;3.70;2.97;;;;;;;;;;5071042;28;20510;-65
2021/05/31 12:20:22;;;;;;;4.70;3.50;;;;;;;;;;5072566;28;20490;-65
2021/05/31 12:22:48;;;;;;;5.07;3.00;;;;;;;;;;5069849;28;20460;-66
2021/05/31 12:25:14;;;;;;;6.57;4.03;;;;;;;;;;5054664;28;20439;-66
2021/05/31 12:27:40;;;;;;;3.57;2.87;;;;;;;;;;5052801;28;20497;-66
2021/05/31 12:30:17;;;;;;;3.90;2.83;;;;;;;;;;5071895;28;20522;-65
2021/05/31 12:32:43;;;;;;;3.50;2.90;;;;;;;;;;5067951;28;20930;-66
2021/05/31 12:35:10;;;;;;;4.90;3.43;;;;;;;;;;5068638;28;20429;-66
2021/05/31 12:37:38;;;;;;;7.30;3.10;;;;;;;;;;5065212;28;20430;-65
2021/05/31 12:40:06;;;;;;;3.30;2.50;;;;;;;;;;5059584;28;20453;-66
2021/05/31 12:42:33;;;;;;;4.53;3.00;;;;;;;;;;5073515;28;20452;-66
2021/05/31 12:45:02;;;;;;;4.70;3.10;;;;;;;;;;5064777;28;20432;-65
2021/05/31 12:47:33;;;;;;;5.13;3.10;;;;;;;;;;5073952;28;20788;-66
2021/05/31 12:49:59;;;;;;;6.03;3.03;;;;;;;;;;5064552;28;20953;-66
2021/05/31 12:52:26;;;;;;;3.37;3.00;;;;;;;;;;5072232;28;20429;-66
2021/05/31 12:55:26;;;;;;;5.00;3.20;;;;;;;;;;5073674;28;20425;-66
2021/05/31 12:57:53;;;;;;;3.80;2.80;;;;;;;;;;5073523;28;20443;-65
2021/05/31 13:00:20;;;;;;;4.20;3.20;;;;;;;;;;5076463;28;20417;-66
2021/05/31 13:02:48;;;;;;;4.03;3.40;;;;;;;;;;5074991;28;20460;-66
2021/05/31 13:05:15;;;;;;;3.93;2.47;;;;;;;;;;5067682;28;20433;-66
2021/05/31 13:07:47;;;;;;;3.80;3.40;;;;;;;;;;5069383;28;20428;-66
2021/05/31 13:10:14;;;;;;;5.27;3.23;;;;;;;;;;5062409;28;20504;-66
2021/05/31 13:13:00;;;;;;;5.37;3.23;;;;;;;;;;5064631;28;20420;-67
2021/05/31 13:15:38;;;;;;;4.73;3.10;;;;;;;;;;5060644;28;20460;-66
2021/05/31 13:18:24;;;;;;;3.60;2.83;;;;;;;;;;5068321;28;20463;-66
2021/05/31 13:20:53;;;;;;;5.00;3.13;;;;;;;;;;5062317;28;20470;-66
2021/05/31 13:23:20;;;;;;;3.83;2.80;;;;;;;;;;5072720;28;20456;-66
2021/05/31 13:25:48;;;;;;;5.00;3.90;;;;;;;;;;5075237;28;20964;-66
2021/05/31 13:28:14;;;;;;;4.40;2.57;;;;;;;;;;5065990;28;20483;-67
2021/05/31 13:30:40;;;;;;;4.50;3.23;;;;;;;;;;5074202;28;20933;-66
2021/05/31 13:33:08;;;;;;;7.47;3.23;;;;;;;;;;5072676;28;20417;-66
2021/05/31 13:35:35;;;;;;;6.90;3.00;;;;;;;;;;5064684;28;20764;-66
2021/05/31 13:38:02;;;;;;;3.63;2.90;;;;;;;;;;5065009;28;20425;-66
2021/05/31 13:40:35;;;;;;;3.70;2.90;;;;;;;;;;5070396;28;20459;-66
2021/05/31 13:43:12;;;;;;;3.40;2.33;;;;;;;;;;5063105;28;20866;-66
2021/05/31 13:45:39;;;;;;;3.47;2.63;;;;;;;;;;5074104;28;20409;-69
2021/05/31 13:48:06;;;;;;;3.40;2.10;;;;;;;;;;5074851;28;20421;-66
2021/05/31 13:50:32;;;;;;;4.87;2.50;;;;;;;;;;5075006;28;20764;-66
2021/05/31 13:52:59;;;;;;;3.63;2.60;;;;;;;;;;5048035;28;20434;-66
2021/05/31 13:55:26;;;;;;;4.17;3.03;;;;;;;;;;5073919;28;20770;-65
2021/05/31 13:57:52;;;;;;;3.53;2.30;;;;;;;;;;5068099;28;20436;-67
2021/05/31 14:00:19;;;;;;;4.20;2.80;;;;;;;;;;5074454;28;20425;-65
2021/05/31 14:02:47;;;;;;;5.27;2.97;;;;;;;;;;5073123;28;20468;-66
2021/05/31 14:05:13;;;;;;;3.50;2.80;;;;;;;;;;5066747;28;20413;-67
2021/05/31 14:07:40;;;;;;;4.87;2.97;;;;;;;;;;5072783;28;20413;-66
2021/05/31 14:10:08;;;;;;;3.33;2.10;;;;;;;;;;5073723;28;20921;-65
2021/05/31 14:12:34;;;;;;;3.10;2.53;;;;;;;;;;5071546;28;20848;-68
2021/05/31 14:15:00;;;;;;;4.10;2.90;;;;;;;;;;5066385;28;20429;-67
2021/05/31 14:17:26;;;;;;;4.27;2.73;;;;;;;;;;5074856;28;20425;-66
2021/05/31 14:19:52;;;;;;;3.10;2.30;;;;;;;;;;5076305;28;20425;-69
2021/05/31 14:22:18;;;;;;;3.27;2.33;;;;;;;;;;5067135;28;20465;-69
2021/05/31 14:24:45;;;;;;;2.60;1.87;;;;;;;;;;5068119;28;20451;-70
2021/05/31 14:27:13;;;;;;;3.33;1.90;;;;;;;;;;5074959;28;20440;-66
2021/05/31 14:29:40;;;;;;;3.37;2.63;;;;;;;;;;5075214;28;20456;-65
2021/05/31 14:32:06;;;;;;;6.63;2.10;;;;;;;;;;5076511;28;20775;-67
2021/05/31 14:34:32;;;;;;;4.23;2.80;;;;;;;;;;5075884;28;20414;-66
2021/05/31 14:36:58;;;;;;;3.40;2.17;;;;;;;;;;5073015;28;20968;-65
2021/05/31 14:39:24;;;;;;;3.90;2.87;;;;;;;;;;5069305;28;20834;-67
2021/05/31 14:41:50;;;;;;;6.00;2.60;;;;;;;;;;5073098;28;20790;-66
2021/05/31 14:44:16;;;;;;;3.13;2.13;;;;;;;;;;5038044;28;20444;-68
2021/05/31 14:46:42;;;;;;;4.20;2.20;;;;;;;;;;5058644;28;20409;-67
2021/05/31 14:49:08;;;;;;;2.97;2.27;;;;;;;;;;5072912;28;20448;-65
2021/05/31 14:51:34;;;;;;;4.23;2.10;;;;;;;;;;5073582;28;20417;-66
2021/05/31 14:54:00;;;;;;;3.47;2.23;;;;;;;;;;5071990;28;20515;-66
2021/05/31 14:56:27;;;;;;;3.43;2.23;;;;;;;;;;5062829;28;20442;-65
2021/05/31 14:58:53;;;;;;;3.63;2.03;;;;;;;;;;5068838;28;20437;-65
2021/05/31 15:01:19;;;;;;;3.20;1.73;;;;;;;;;;5060019;28;20909;-62